sensor_id;sensor_type;location;lat;lon;timestamp;P1;durP1;ratioP1;P2;durP2;ratioP2
22949;SDS011;11641;51.018;4.474;2022-12-11T00:00:37;25.23;;;12.23;;
22949;SDS011;11641;51.018;4.474;2022-12-11T00:03:06;24.60;;;12.95;;
22949;SDS011;11641;51.018;4.474;2022-12-11T00:05:32;24.25;;;12.32;;
22949;SDS011;11641;51.018;4.474;2022-12-11T00:07:58;26.70;;;13.00;;
22949;SDS011;11641;51.018;4.474;2022-12-11T00:10:24;26.00;;;12.68;;
22949;SDS011;11641;51.018;4.474;2022-12-11T00:12:52;22.95;;;11.75;;
22949;SDS011;11641;51.018;4.474;2022-12-11T00:15:18;22.48;;;11.88;;
22949;SDS011;11641;51.018;4.474;2022-12-11T00:17:43;23.70;;;12.27;;
22949;SDS011;11641;51.018;4.474;2022-12-11T00:20:09;26.08;;;12.07;;
22949;SDS011;11641;51.018;4.474;2022-12-11T00:22:35;28.38;;;13.35;;
22949;SDS011;11641;51.018;4.474;2022-12-11T00:25:01;25.17;;;12.27;;
22949;SDS011;11641;51.018;4.474;2022-12-11T00:27:28;25.75;;;13.02;;
22949;SDS011;11641;51.018;4.474;2022-12-11T00:29:53;26.02;;;13.90;;
22949;SDS011;11641;51.018;4.474;2022-12-11T00:32:19;26.00;;;12.38;;
22949;SDS011;11641;51.018;4.474;2022-12-11T00:34:45;26.05;;;13.38;;
22949;SDS011;11641;51.018;4.474;2022-12-11T00:37:13;25.88;;;12.95;;
22949;SDS011;11641;51.018;4.474;2022-12-11T00:39:38;23.95;;;12.63;;
22949;SDS011;11641;51.018;4.474;2022-12-11T00:42:06;24.50;;;12.65;;
22949;SDS011;11641;51.018;4.474;2022-12-11T00:44:32;25.77;;;12.52;;
22949;SDS011;11641;51.018;4.474;2022-12-11T00:46:59;26.38;;;12.52;;
22949;SDS011;11641;51.018;4.474;2022-12-11T00:49:26;23.58;;;12.55;;
22949;SDS011;11641;51.018;4.474;2022-12-11T00:51:52;25.42;;;13.63;;
22949;SDS011;11641;51.018;4.474;2022-12-11T00:54:18;26.90;;;12.88;;
22949;SDS011;11641;51.018;4.474;2022-12-11T00:56:43;27.63;;;13.48;;
22949;SDS011;11641;51.018;4.474;2022-12-11T00:59:09;29.02;;;13.27;;
22949;SDS011;11641;51.018;4.474;2022-12-11T01:01:35;26.83;;;12.88;;
22949;SDS011;11641;51.018;4.474;2022-12-11T01:04:00;25.33;;;12.02;;
22949;SDS011;11641;51.018;4.474;2022-12-11T01:06:26;25.92;;;12.85;;
22949;SDS011;11641;51.018;4.474;2022-12-11T01:08:52;28.50;;;13.10;;
22949;SDS011;11641;51.018;4.474;2022-12-11T01:11:37;24.40;;;11.50;;
22949;SDS011;11641;51.018;4.474;2022-12-11T01:14:06;25.63;;;11.35;;
22949;SDS011;11641;51.018;4.474;2022-12-11T01:16:32;24.65;;;11.30;;
22949;SDS011;11641;51.018;4.474;2022-12-11T01:19:00;23.73;;;11.85;;
22949;SDS011;11641;51.018;4.474;2022-12-11T01:21:27;23.35;;;11.73;;
22949;SDS011;11641;51.018;4.474;2022-12-11T01:23:53;21.65;;;11.57;;
22949;SDS011;11641;51.018;4.474;2022-12-11T01:26:18;25.33;;;12.23;;
22949;SDS011;11641;51.018;4.474;2022-12-11T01:28:47;23.92;;;11.57;;
22949;SDS011;11641;51.018;4.474;2022-12-11T01:31:16;21.50;;;11.65;;
22949;SDS011;11641;51.018;4.474;2022-12-11T01:33:44;22.60;;;11.88;;
22949;SDS011;11641;51.018;4.474;2022-12-11T01:36:11;26.75;;;13.25;;
22949;SDS011;11641;51.018;4.474;2022-12-11T01:38:41;25.92;;;13.27;;
22949;SDS011;11641;51.018;4.474;2022-12-11T01:41:07;25.17;;;12.05;;
22949;SDS011;11641;51.018;4.474;2022-12-11T01:46:40;27.23;;;11.98;;
22949;SDS011;11641;51.018;4.474;2022-12-11T01:49:08;22.20;;;12.02;;
22949;SDS011;11641;51.018;4.474;2022-12-11T01:51:40;21.08;;;11.20;;
22949;SDS011;11641;51.018;4.474;2022-12-11T01:54:18;24.25;;;12.25;;
22949;SDS011;11641;51.018;4.474;2022-12-11T01:56:45;26.85;;;12.60;;
22949;SDS011;11641;51.018;4.474;2022-12-11T01:59:14;23.50;;;12.07;;
22949;SDS011;11641;51.018;4.474;2022-12-11T02:01:51;28.65;;;12.30;;
22949;SDS011;11641;51.018;4.474;2022-12-11T02:04:19;23.10;;;13.05;;
22949;SDS011;11641;51.018;4.474;2022-12-11T02:06:47;25.13;;;12.50;;
22949;SDS011;11641;51.018;4.474;2022-12-11T02:09:18;27.73;;;12.10;;
22949;SDS011;11641;51.018;4.474;2022-12-11T02:11:54;25.23;;;12.43;;
22949;SDS011;11641;51.018;4.474;2022-12-11T02:17:21;24.80;;;12.80;;
22949;SDS011;11641;51.018;4.474;2022-12-11T02:20:06;23.95;;;10.43;;
22949;SDS011;11641;51.018;4.474;2022-12-11T02:30:45;27.27;;;14.07;;
22949;SDS011;11641;51.018;4.474;2022-12-11T02:33:18;27.63;;;13.40;;
22949;SDS011;11641;51.018;4.474;2022-12-11T02:35:48;24.47;;;13.47;;
22949;SDS011;11641;51.018;4.474;2022-12-11T02:38:22;24.80;;;13.07;;
22949;SDS011;11641;51.018;4.474;2022-12-11T02:40:53;24.48;;;12.48;;
22949;SDS011;11641;51.018;4.474;2022-12-11T02:43:22;28.33;;;13.43;;
22949;SDS011;11641;51.018;4.474;2022-12-11T02:45:54;27.20;;;13.45;;
22949;SDS011;11641;51.018;4.474;2022-12-11T02:48:21;28.17;;;13.68;;
22949;SDS011;11641;51.018;4.474;2022-12-11T02:50:51;26.08;;;13.77;;
22949;SDS011;11641;51.018;4.474;2022-12-11T02:53:22;26.23;;;14.05;;
22949;SDS011;11641;51.018;4.474;2022-12-11T02:55:51;25.75;;;12.32;;
22949;SDS011;11641;51.018;4.474;2022-12-11T03:00:54;29.52;;;14.10;;
22949;SDS011;11641;51.018;4.474;2022-12-11T03:03:20;28.67;;;15.25;;
22949;SDS011;11641;51.018;4.474;2022-12-11T03:05:46;26.77;;;14.55;;
22949;SDS011;11641;51.018;4.474;2022-12-11T03:08:12;30.58;;;14.35;;
22949;SDS011;11641;51.018;4.474;2022-12-11T03:10:45;28.73;;;13.73;;
22949;SDS011;11641;51.018;4.474;2022-12-11T03:13:12;33.00;;;15.23;;
22949;SDS011;11641;51.018;4.474;2022-12-11T03:16:18;31.02;;;14.80;;
22949;SDS011;11641;51.018;4.474;2022-12-11T03:18:48;28.92;;;14.55;;
22949;SDS011;11641;51.018;4.474;2022-12-11T03:24:04;28.55;;;14.52;;
22949;SDS011;11641;51.018;4.474;2022-12-11T03:26:55;32.30;;;16.25;;
22949;SDS011;11641;51.018;4.474;2022-12-11T03:29:30;28.13;;;14.45;;
22949;SDS011;11641;51.018;4.474;2022-12-11T03:32:07;31.05;;;15.65;;
22949;SDS011;11641;51.018;4.474;2022-12-11T03:37:32;27.45;;;14.45;;
22949;SDS011;11641;51.018;4.474;2022-12-11T03:40:02;30.95;;;15.32;;
22949;SDS011;11641;51.018;4.474;2022-12-11T03:42:31;30.90;;;14.88;;
22949;SDS011;11641;51.018;4.474;2022-12-11T03:44:59;30.55;;;15.13;;
22949;SDS011;11641;51.018;4.474;2022-12-11T03:47:28;31.42;;;15.05;;
22949;SDS011;11641;51.018;4.474;2022-12-11T03:49:56;32.20;;;15.75;;
22949;SDS011;11641;51.018;4.474;2022-12-11T03:52:24;29.00;;;15.32;;
22949;SDS011;11641;51.018;4.474;2022-12-11T03:54:51;29.02;;;14.27;;
22949;SDS011;11641;51.018;4.474;2022-12-11T03:57:21;31.27;;;15.15;;
22949;SDS011;11641;51.018;4.474;2022-12-11T03:59:55;27.90;;;15.38;;
22949;SDS011;11641;51.018;4.474;2022-12-11T04:02:25;25.77;;;14.75;;
22949;SDS011;11641;51.018;4.474;2022-12-11T04:04:51;30.20;;;13.85;;
22949;SDS011;11641;51.018;4.474;2022-12-11T04:07:17;29.27;;;14.57;;
22949;SDS011;11641;51.018;4.474;2022-12-11T04:09:42;27.55;;;14.30;;
22949;SDS011;11641;51.018;4.474;2022-12-11T04:12:08;25.63;;;13.93;;
22949;SDS011;11641;51.018;4.474;2022-12-11T04:14:36;25.60;;;13.52;;
22949;SDS011;11641;51.018;4.474;2022-12-11T04:17:20;27.25;;;13.82;;
22949;SDS011;11641;51.018;4.474;2022-12-11T04:20:04;27.52;;;13.63;;
22949;SDS011;11641;51.018;4.474;2022-12-11T04:22:49;26.38;;;14.40;;
22949;SDS011;11641;51.018;4.474;2022-12-11T04:25:36;26.10;;;13.80;;
22949;SDS011;11641;51.018;4.474;2022-12-11T04:28:04;27.75;;;14.90;;
22949;SDS011;11641;51.018;4.474;2022-12-11T04:30:32;26.33;;;14.73;;
22949;SDS011;11641;51.018;4.474;2022-12-11T04:33:00;28.08;;;14.98;;
22949;SDS011;11641;51.018;4.474;2022-12-11T04:35:26;28.73;;;15.57;;
22949;SDS011;11641;51.018;4.474;2022-12-11T04:37:52;28.63;;;15.45;;
22949;SDS011;11641;51.018;4.474;2022-12-11T04:40:18;32.30;;;15.88;;
22949;SDS011;11641;51.018;4.474;2022-12-11T04:42:47;31.38;;;16.05;;
22949;SDS011;11641;51.018;4.474;2022-12-11T04:45:13;31.05;;;16.23;;
22949;SDS011;11641;51.018;4.474;2022-12-11T04:47:39;37.75;;;17.90;;
22949;SDS011;11641;51.018;4.474;2022-12-11T04:50:06;33.85;;;16.92;;
22949;SDS011;11641;51.018;4.474;2022-12-11T04:52:36;33.75;;;16.63;;
22949;SDS011;11641;51.018;4.474;2022-12-11T04:55:03;32.08;;;16.88;;
22949;SDS011;11641;51.018;4.474;2022-12-11T04:57:29;31.73;;;15.77;;
22949;SDS011;11641;51.018;4.474;2022-12-11T04:59:55;35.45;;;15.52;;
22949;SDS011;11641;51.018;4.474;2022-12-11T05:02:23;34.50;;;16.25;;
22949;SDS011;11641;51.018;4.474;2022-12-11T05:04:50;32.67;;;16.05;;
22949;SDS011;11641;51.018;4.474;2022-12-11T05:07:16;33.88;;;16.02;;
22949;SDS011;11641;51.018;4.474;2022-12-11T05:09:41;35.80;;;16.83;;
22949;SDS011;11641;51.018;4.474;2022-12-11T05:12:07;32.70;;;16.88;;
22949;SDS011;11641;51.018;4.474;2022-12-11T05:14:36;37.40;;;17.67;;
22949;SDS011;11641;51.018;4.474;2022-12-11T05:17:02;35.47;;;16.25;;
22949;SDS011;11641;51.018;4.474;2022-12-11T05:19:29;31.40;;;15.55;;
22949;SDS011;11641;51.018;4.474;2022-12-11T05:21:56;32.67;;;17.30;;
22949;SDS011;11641;51.018;4.474;2022-12-11T05:24:21;36.10;;;16.73;;
22949;SDS011;11641;51.018;4.474;2022-12-11T05:26:47;32.33;;;15.75;;
22949;SDS011;11641;51.018;4.474;2022-12-11T05:29:13;36.25;;;17.13;;
22949;SDS011;11641;51.018;4.474;2022-12-11T05:31:41;38.70;;;17.25;;
22949;SDS011;11641;51.018;4.474;2022-12-11T05:34:07;40.05;;;17.70;;
22949;SDS011;11641;51.018;4.474;2022-12-11T05:36:33;36.60;;;17.40;;
22949;SDS011;11641;51.018;4.474;2022-12-11T05:39:02;33.58;;;17.38;;
22949;SDS011;11641;51.018;4.474;2022-12-11T05:41:29;31.92;;;17.15;;
22949;SDS011;11641;51.018;4.474;2022-12-11T05:43:56;36.95;;;18.48;;
22949;SDS011;11641;51.018;4.474;2022-12-11T05:46:25;36.97;;;17.83;;
22949;SDS011;11641;51.018;4.474;2022-12-11T05:48:53;37.90;;;16.90;;
22949;SDS011;11641;51.018;4.474;2022-12-11T05:51:23;39.80;;;17.95;;
22949;SDS011;11641;51.018;4.474;2022-12-11T05:53:52;38.88;;;17.42;;
22949;SDS011;11641;51.018;4.474;2022-12-11T05:56:23;37.78;;;17.45;;
22949;SDS011;11641;51.018;4.474;2022-12-11T05:58:50;36.90;;;17.92;;
22949;SDS011;11641;51.018;4.474;2022-12-11T06:01:19;34.45;;;17.67;;
22949;SDS011;11641;51.018;4.474;2022-12-11T06:03:54;38.10;;;17.35;;
22949;SDS011;11641;51.018;4.474;2022-12-11T06:06:21;39.05;;;18.85;;
22949;SDS011;11641;51.018;4.474;2022-12-11T06:08:48;39.10;;;17.83;;
22949;SDS011;11641;51.018;4.474;2022-12-11T06:11:18;37.88;;;17.75;;
22949;SDS011;11641;51.018;4.474;2022-12-11T06:13:45;44.92;;;19.15;;
22949;SDS011;11641;51.018;4.474;2022-12-11T06:16:10;36.95;;;18.27;;
22949;SDS011;11641;51.018;4.474;2022-12-11T06:18:40;39.75;;;17.48;;
22949;SDS011;11641;51.018;4.474;2022-12-11T06:21:16;36.85;;;18.23;;
22949;SDS011;11641;51.018;4.474;2022-12-11T06:23:47;35.05;;;18.23;;
22949;SDS011;11641;51.018;4.474;2022-12-11T06:26:15;38.17;;;18.63;;
22949;SDS011;11641;51.018;4.474;2022-12-11T06:28:44;38.78;;;17.77;;
22949;SDS011;11641;51.018;4.474;2022-12-11T06:31:11;41.20;;;17.88;;
22949;SDS011;11641;51.018;4.474;2022-12-11T06:33:39;41.35;;;19.08;;
22949;SDS011;11641;51.018;4.474;2022-12-11T06:36:07;38.42;;;17.92;;
22949;SDS011;11641;51.018;4.474;2022-12-11T06:38:35;39.88;;;18.48;;
22949;SDS011;11641;51.018;4.474;2022-12-11T06:41:02;38.00;;;18.33;;
22949;SDS011;11641;51.018;4.474;2022-12-11T06:43:32;41.70;;;18.58;;
22949;SDS011;11641;51.018;4.474;2022-12-11T06:46:10;40.63;;;18.20;;
22949;SDS011;11641;51.018;4.474;2022-12-11T06:48:37;37.47;;;18.17;;
22949;SDS011;11641;51.018;4.474;2022-12-11T06:51:04;47.17;;;20.95;;
22949;SDS011;11641;51.018;4.474;2022-12-11T06:53:30;41.22;;;18.20;;
22949;SDS011;11641;51.018;4.474;2022-12-11T06:56:02;39.67;;;17.98;;
22949;SDS011;11641;51.018;4.474;2022-12-11T06:58:33;39.65;;;18.02;;
22949;SDS011;11641;51.018;4.474;2022-12-11T07:01:00;42.85;;;18.85;;
22949;SDS011;11641;51.018;4.474;2022-12-11T07:03:26;38.85;;;18.20;;
22949;SDS011;11641;51.018;4.474;2022-12-11T07:05:52;37.33;;;17.92;;
22949;SDS011;11641;51.018;4.474;2022-12-11T07:08:23;39.45;;;18.45;;
22949;SDS011;11641;51.018;4.474;2022-12-11T07:10:51;42.38;;;19.40;;
22949;SDS011;11641;51.018;4.474;2022-12-11T07:13:17;40.03;;;17.95;;
22949;SDS011;11641;51.018;4.474;2022-12-11T07:15:42;44.15;;;18.73;;
22949;SDS011;11641;51.018;4.474;2022-12-11T07:18:10;39.65;;;18.00;;
22949;SDS011;11641;51.018;4.474;2022-12-11T07:20:37;41.03;;;18.20;;
22949;SDS011;11641;51.018;4.474;2022-12-11T07:23:03;38.88;;;18.75;;
22949;SDS011;11641;51.018;4.474;2022-12-11T07:25:31;38.22;;;17.63;;
22949;SDS011;11641;51.018;4.474;2022-12-11T07:27:59;39.63;;;18.48;;
22949;SDS011;11641;51.018;4.474;2022-12-11T07:30:25;37.45;;;18.10;;
22949;SDS011;11641;51.018;4.474;2022-12-11T07:32:50;42.53;;;20.38;;
22949;SDS011;11641;51.018;4.474;2022-12-11T07:35:18;39.40;;;19.73;;
22949;SDS011;11641;51.018;4.474;2022-12-11T07:37:46;44.08;;;20.15;;
22949;SDS011;11641;51.018;4.474;2022-12-11T07:40:12;39.17;;;20.20;;
22949;SDS011;11641;51.018;4.474;2022-12-11T07:42:38;40.65;;;19.42;;
22949;SDS011;11641;51.018;4.474;2022-12-11T07:45:04;36.97;;;19.00;;
22949;SDS011;11641;51.018;4.474;2022-12-11T07:47:31;37.17;;;18.55;;
22949;SDS011;11641;51.018;4.474;2022-12-11T07:49:57;41.40;;;19.17;;
22949;SDS011;11641;51.018;4.474;2022-12-11T07:52:23;40.97;;;19.42;;
22949;SDS011;11641;51.018;4.474;2022-12-11T07:54:49;41.15;;;19.08;;
22949;SDS011;11641;51.018;4.474;2022-12-11T07:57:15;36.08;;;19.00;;
22949;SDS011;11641;51.018;4.474;2022-12-11T07:59:43;37.45;;;18.98;;
22949;SDS011;11641;51.018;4.474;2022-12-11T08:02:09;40.75;;;19.58;;
22949;SDS011;11641;51.018;4.474;2022-12-11T08:04:36;39.17;;;19.42;;
22949;SDS011;11641;51.018;4.474;2022-12-11T08:07:01;41.53;;;20.17;;
22949;SDS011;11641;51.018;4.474;2022-12-11T08:09:27;41.13;;;20.20;;
22949;SDS011;11641;51.018;4.474;2022-12-11T08:11:53;42.88;;;19.23;;
22949;SDS011;11641;51.018;4.474;2022-12-11T08:14:20;38.03;;;20.35;;
22949;SDS011;11641;51.018;4.474;2022-12-11T08:16:46;38.72;;;19.23;;
22949;SDS011;11641;51.018;4.474;2022-12-11T08:19:17;36.13;;;18.65;;
22949;SDS011;11641;51.018;4.474;2022-12-11T08:21:42;34.28;;;18.15;;
22949;SDS011;11641;51.018;4.474;2022-12-11T08:24:08;35.42;;;18.10;;
22949;SDS011;11641;51.018;4.474;2022-12-11T08:26:38;37.20;;;18.02;;
22949;SDS011;11641;51.018;4.474;2022-12-11T08:29:06;35.60;;;18.02;;
22949;SDS011;11641;51.018;4.474;2022-12-11T08:31:32;40.03;;;19.60;;
22949;SDS011;11641;51.018;4.474;2022-12-11T08:34:02;37.13;;;18.73;;
22949;SDS011;11641;51.018;4.474;2022-12-11T08:36:28;36.40;;;19.13;;
22949;SDS011;11641;51.018;4.474;2022-12-11T08:38:55;36.17;;;18.58;;
22949;SDS011;11641;51.018;4.474;2022-12-11T08:41:25;41.47;;;20.67;;
22949;SDS011;11641;51.018;4.474;2022-12-11T08:43:53;37.90;;;18.30;;
22949;SDS011;11641;51.018;4.474;2022-12-11T08:46:21;36.28;;;18.33;;
22949;SDS011;11641;51.018;4.474;2022-12-11T08:48:50;35.85;;;17.90;;
22949;SDS011;11641;51.018;4.474;2022-12-11T08:51:18;34.05;;;17.77;;
22949;SDS011;11641;51.018;4.474;2022-12-11T08:53:46;36.85;;;18.95;;
22949;SDS011;11641;51.018;4.474;2022-12-11T08:56:19;35.65;;;17.77;;
22949;SDS011;11641;51.018;4.474;2022-12-11T08:58:48;33.08;;;18.23;;
22949;SDS011;11641;51.018;4.474;2022-12-11T09:01:18;35.63;;;17.88;;
22949;SDS011;11641;51.018;4.474;2022-12-11T09:03:50;37.13;;;18.65;;
22949;SDS011;11641;51.018;4.474;2022-12-11T09:06:19;35.92;;;18.10;;
22949;SDS011;11641;51.018;4.474;2022-12-11T09:08:50;33.83;;;16.58;;
22949;SDS011;11641;51.018;4.474;2022-12-11T09:11:21;35.17;;;18.15;;
22949;SDS011;11641;51.018;4.474;2022-12-11T09:13:49;34.50;;;17.20;;
22949;SDS011;11641;51.018;4.474;2022-12-11T09:16:15;33.22;;;17.10;;
22949;SDS011;11641;51.018;4.474;2022-12-11T09:18:46;33.63;;;17.83;;
22949;SDS011;11641;51.018;4.474;2022-12-11T09:21:17;33.53;;;17.48;;
22949;SDS011;11641;51.018;4.474;2022-12-11T09:23:44;32.80;;;17.33;;
22949;SDS011;11641;51.018;4.474;2022-12-11T09:26:12;32.03;;;17.63;;
22949;SDS011;11641;51.018;4.474;2022-12-11T09:28:44;36.88;;;18.27;;
22949;SDS011;11641;51.018;4.474;2022-12-11T09:31:11;37.65;;;19.33;;
22949;SDS011;11641;51.018;4.474;2022-12-11T09:33:39;35.63;;;17.25;;
22949;SDS011;11641;51.018;4.474;2022-12-11T09:36:05;35.35;;;17.17;;
22949;SDS011;11641;51.018;4.474;2022-12-11T09:38:32;31.73;;;16.65;;
22949;SDS011;11641;51.018;4.474;2022-12-11T09:40:58;36.00;;;16.38;;
22949;SDS011;11641;51.018;4.474;2022-12-11T09:43:37;33.78;;;17.35;;
22949;SDS011;11641;51.018;4.474;2022-12-11T09:46:15;35.15;;;17.25;;
22949;SDS011;11641;51.018;4.474;2022-12-11T09:48:42;35.27;;;17.73;;
22949;SDS011;11641;51.018;4.474;2022-12-11T09:53:53;38.97;;;17.27;;
22949;SDS011;11641;51.018;4.474;2022-12-11T10:07:48;35.10;;;16.23;;
22949;SDS011;11641;51.018;4.474;2022-12-11T10:10:35;36.35;;;16.65;;
22949;SDS011;11641;51.018;4.474;2022-12-11T10:13:05;30.98;;;15.40;;
22949;SDS011;11641;51.018;4.474;2022-12-11T10:18:41;31.88;;;15.77;;
22949;SDS011;11641;51.018;4.474;2022-12-11T10:21:08;29.75;;;15.25;;
22949;SDS011;11641;51.018;4.474;2022-12-11T10:23:43;32.83;;;15.45;;
22949;SDS011;11641;51.018;4.474;2022-12-11T10:26:18;29.52;;;15.10;;
22949;SDS011;11641;51.018;4.474;2022-12-11T10:28:46;29.25;;;15.18;;
22949;SDS011;11641;51.018;4.474;2022-12-11T10:31:26;28.67;;;14.63;;
22949;SDS011;11641;51.018;4.474;2022-12-11T10:34:04;31.00;;;15.10;;
22949;SDS011;11641;51.018;4.474;2022-12-11T10:36:37;29.88;;;14.38;;
22949;SDS011;11641;51.018;4.474;2022-12-11T10:39:17;32.88;;;15.35;;
22949;SDS011;11641;51.018;4.474;2022-12-11T10:41:48;26.98;;;13.82;;
22949;SDS011;11641;51.018;4.474;2022-12-11T10:44:17;29.65;;;14.85;;
22949;SDS011;11641;51.018;4.474;2022-12-11T10:47:05;29.00;;;15.07;;
22949;SDS011;11641;51.018;4.474;2022-12-11T10:49:31;28.92;;;14.68;;
22949;SDS011;11641;51.018;4.474;2022-12-11T10:51:59;30.52;;;15.05;;
22949;SDS011;11641;51.018;4.474;2022-12-11T10:54:36;29.33;;;14.25;;
22949;SDS011;11641;51.018;4.474;2022-12-11T10:57:07;31.73;;;14.85;;
22949;SDS011;11641;51.018;4.474;2022-12-11T11:05:12;30.42;;;14.75;;
22949;SDS011;11641;51.018;4.474;2022-12-11T11:07:41;28.08;;;13.90;;
22949;SDS011;11641;51.018;4.474;2022-12-11T11:12:42;24.08;;;12.95;;
22949;SDS011;11641;51.018;4.474;2022-12-11T11:17:47;28.45;;;14.57;;
22949;SDS011;11641;51.018;4.474;2022-12-11T11:20:18;29.90;;;14.80;;
22949;SDS011;11641;51.018;4.474;2022-12-11T11:22:50;29.38;;;14.73;;
22949;SDS011;11641;51.018;4.474;2022-12-11T11:25:22;27.15;;;14.27;;
22949;SDS011;11641;51.018;4.474;2022-12-11T11:27:54;26.98;;;13.82;;
22949;SDS011;11641;51.018;4.474;2022-12-11T11:30:22;29.08;;;14.40;;
22949;SDS011;11641;51.018;4.474;2022-12-11T11:32:50;30.25;;;14.15;;
22949;SDS011;11641;51.018;4.474;2022-12-11T11:35:27;27.27;;;14.65;;
22949;SDS011;11641;51.018;4.474;2022-12-11T11:37:56;25.05;;;14.95;;
22949;SDS011;11641;51.018;4.474;2022-12-11T11:43:47;32.13;;;15.25;;
22949;SDS011;11641;51.018;4.474;2022-12-11T11:46:26;27.30;;;14.02;;
22949;SDS011;11641;51.018;4.474;2022-12-11T11:51:39;28.77;;;15.33;;
22949;SDS011;11641;51.018;4.474;2022-12-11T11:57:03;27.17;;;13.90;;
22949;SDS011;11641;51.018;4.474;2022-12-11T11:59:41;31.15;;;15.52;;
22949;SDS011;11641;51.018;4.474;2022-12-11T12:02:15;27.55;;;14.60;;
22949;SDS011;11641;51.018;4.474;2022-12-11T12:04:42;27.75;;;14.65;;
22949;SDS011;11641;51.018;4.474;2022-12-11T12:09:48;24.80;;;13.77;;
22949;SDS011;11641;51.018;4.474;2022-12-11T12:12:56;26.98;;;14.82;;
22949;SDS011;11641;51.018;4.474;2022-12-11T12:18:16;29.27;;;15.23;;
22949;SDS011;11641;51.018;4.474;2022-12-11T12:36:58;28.15;;;14.60;;
22949;SDS011;11641;51.018;4.474;2022-12-11T12:44:33;29.30;;;15.38;;
22949;SDS011;11641;51.018;4.474;2022-12-11T12:47:21;38.05;;;17.05;;
22949;SDS011;11641;51.018;4.474;2022-12-11T12:49:49;31.42;;;14.63;;
22949;SDS011;11641;51.018;4.474;2022-12-11T12:52:20;24.92;;;12.52;;
22949;SDS011;11641;51.018;4.474;2022-12-11T12:57:38;27.52;;;13.20;;
22949;SDS011;11641;51.018;4.474;2022-12-11T13:03:02;26.52;;;13.13;;
22949;SDS011;11641;51.018;4.474;2022-12-11T13:05:44;28.20;;;12.38;;
22949;SDS011;11641;51.018;4.474;2022-12-11T13:08:27;62.80;;;29.60;;
22949;SDS011;11641;51.018;4.474;2022-12-11T13:11:02;32.90;;;15.27;;
22949;SDS011;11641;51.018;4.474;2022-12-11T13:13:39;24.88;;;11.18;;
22949;SDS011;11641;51.018;4.474;2022-12-11T13:18:39;25.50;;;11.57;;
22949;SDS011;11641;51.018;4.474;2022-12-11T13:21:27;31.98;;;12.48;;
22949;SDS011;11641;51.018;4.474;2022-12-11T13:24:09;29.92;;;12.48;;
22949;SDS011;11641;51.018;4.474;2022-12-11T13:26:36;25.52;;;12.40;;
22949;SDS011;11641;51.018;4.474;2022-12-11T13:29:05;22.52;;;10.88;;
22949;SDS011;11641;51.018;4.474;2022-12-11T13:31:55;69.50;;;31.23;;
22949;SDS011;11641;51.018;4.474;2022-12-11T13:34:25;31.38;;;14.55;;
22949;SDS011;11641;51.018;4.474;2022-12-11T13:36:55;24.92;;;11.07;;
22949;SDS011;11641;51.018;4.474;2022-12-11T13:39:25;26.52;;;10.98;;
22949;SDS011;11641;51.018;4.474;2022-12-11T13:41:59;20.75;;;9.65;;
22949;SDS011;11641;51.018;4.474;2022-12-11T13:44:30;27.95;;;10.20;;
22949;SDS011;11641;51.018;4.474;2022-12-11T13:47:05;27.58;;;11.73;;
22949;SDS011;11641;51.018;4.474;2022-12-11T13:49:39;30.63;;;16.48;;
22949;SDS011;11641;51.018;4.474;2022-12-11T13:52:16;31.23;;;14.38;;
22949;SDS011;11641;51.018;4.474;2022-12-11T13:57:20;28.05;;;12.18;;
22949;SDS011;11641;51.018;4.474;2022-12-11T13:59:51;26.85;;;12.48;;
22949;SDS011;11641;51.018;4.474;2022-12-11T14:04:50;29.98;;;14.10;;
22949;SDS011;11641;51.018;4.474;2022-12-11T14:07:24;29.70;;;12.95;;
22949;SDS011;11641;51.018;4.474;2022-12-11T14:09:55;28.60;;;12.82;;
22949;SDS011;11641;51.018;4.474;2022-12-11T14:12:26;31.80;;;14.43;;
22949;SDS011;11641;51.018;4.474;2022-12-11T14:14:57;30.05;;;14.38;;
22949;SDS011;11641;51.018;4.474;2022-12-11T14:17:27;29.67;;;13.55;;
22949;SDS011;11641;51.018;4.474;2022-12-11T14:19:55;31.15;;;14.75;;
22949;SDS011;11641;51.018;4.474;2022-12-11T14:22:24;35.20;;;15.82;;
22949;SDS011;11641;51.018;4.474;2022-12-11T14:24:55;44.22;;;19.73;;
22949;SDS011;11641;51.018;4.474;2022-12-11T14:27:27;67.60;;;30.98;;
22949;SDS011;11641;51.018;4.474;2022-12-11T14:29:53;34.97;;;14.75;;
22949;SDS011;11641;51.018;4.474;2022-12-11T14:34:57;28.95;;;15.02;;
22949;SDS011;11641;51.018;4.474;2022-12-11T14:37:26;32.42;;;15.23;;
22949;SDS011;11641;51.018;4.474;2022-12-11T14:42:26;35.53;;;15.73;;
22949;SDS011;11641;51.018;4.474;2022-12-11T14:47:40;34.83;;;15.10;;
22949;SDS011;11641;51.018;4.474;2022-12-11T14:50:32;34.17;;;15.75;;
22949;SDS011;11641;51.018;4.474;2022-12-11T14:53:08;41.97;;;16.95;;
22949;SDS011;11641;51.018;4.474;2022-12-11T14:55:40;39.25;;;17.23;;
22949;SDS011;11641;51.018;4.474;2022-12-11T14:58:18;38.95;;;18.40;;
22949;SDS011;11641;51.018;4.474;2022-12-11T15:01:02;33.05;;;15.05;;
22949;SDS011;11641;51.018;4.474;2022-12-11T15:03:48;37.33;;;16.35;;
22949;SDS011;11641;51.018;4.474;2022-12-11T15:06:24;42.42;;;17.33;;
22949;SDS011;11641;51.018;4.474;2022-12-11T15:11:42;34.67;;;16.25;;
22949;SDS011;11641;51.018;4.474;2022-12-11T15:14:09;35.95;;;16.20;;
22949;SDS011;11641;51.018;4.474;2022-12-11T15:16:38;38.10;;;16.52;;
22949;SDS011;11641;51.018;4.474;2022-12-11T15:19:05;35.05;;;16.45;;
22949;SDS011;11641;51.018;4.474;2022-12-11T15:21:34;36.72;;;16.77;;
22949;SDS011;11641;51.018;4.474;2022-12-11T15:24:04;38.47;;;17.17;;
22949;SDS011;11641;51.018;4.474;2022-12-11T15:26:43;37.65;;;17.88;;
22949;SDS011;11641;51.018;4.474;2022-12-11T15:31:58;40.53;;;17.58;;
22949;SDS011;11641;51.018;4.474;2022-12-11T15:34:57;39.60;;;16.52;;
22949;SDS011;11641;51.018;4.474;2022-12-11T15:37:25;40.00;;;17.30;;
22949;SDS011;11641;51.018;4.474;2022-12-11T15:39:55;74.43;;;36.42;;
22949;SDS011;11641;51.018;4.474;2022-12-11T15:42:26;42.97;;;18.40;;
22949;SDS011;11641;51.018;4.474;2022-12-11T15:44:54;40.03;;;18.77;;
22949;SDS011;11641;51.018;4.474;2022-12-11T15:47:22;39.20;;;17.08;;
22949;SDS011;11641;51.018;4.474;2022-12-11T15:49:52;39.00;;;17.70;;
22949;SDS011;11641;51.018;4.474;2022-12-11T15:52:40;39.10;;;18.02;;
22949;SDS011;11641;51.018;4.474;2022-12-11T15:55:06;41.60;;;17.45;;
22949;SDS011;11641;51.018;4.474;2022-12-11T15:57:32;41.22;;;18.23;;
22949;SDS011;11641;51.018;4.474;2022-12-11T15:59:58;36.60;;;17.67;;
22949;SDS011;11641;51.018;4.474;2022-12-11T16:02:24;38.33;;;17.13;;
22949;SDS011;11641;51.018;4.474;2022-12-11T16:04:52;41.53;;;17.73;;
22949;SDS011;11641;51.018;4.474;2022-12-11T16:07:19;48.83;;;18.17;;
22949;SDS011;11641;51.018;4.474;2022-12-11T16:09:47;41.78;;;19.13;;
22949;SDS011;11641;51.018;4.474;2022-12-11T16:12:14;39.70;;;18.63;;
22949;SDS011;11641;51.018;4.474;2022-12-11T16:14:40;41.22;;;19.23;;
22949;SDS011;11641;51.018;4.474;2022-12-11T16:17:07;43.63;;;19.17;;
22949;SDS011;11641;51.018;4.474;2022-12-11T16:19:34;45.85;;;20.85;;
22949;SDS011;11641;51.018;4.474;2022-12-11T16:22:01;44.92;;;19.88;;
22949;SDS011;11641;51.018;4.474;2022-12-11T16:24:30;44.80;;;20.27;;
22949;SDS011;11641;51.018;4.474;2022-12-11T16:26:59;41.22;;;20.05;;
22949;SDS011;11641;51.018;4.474;2022-12-11T16:29:25;50.75;;;22.98;;